LOT3827 EPWA-EPGD
Flight info
| Callsign | LOT3827 |
|---|---|
| Flight time | 0h 31m |
| Altitude | 28000 |
| Route | OLILA L621 RILAB DCT OSLOG |
| Aircraft | B38M/M-SDE1FGHILORVWXY/HB1 |
Departure
| Time | 2026-05-05 22:22 |
|---|---|
| Airport | Warsaw Chopin Airport (EPWA) |
Arrival
| Time | 2026-05-05 22:54 |
|---|---|
| Airport | Gdańsk Lech Wałęsa Airport (EPGD) |
| Time | Latitude | Longitude | Altitude | Speed | Heading |
|---|---|---|---|---|---|
| 2026-05-05 21:51 | 52.17047 | 20.97101 | 336 ft | 0 kts | 70° |
| 2026-05-05 22:12 | 52.17040 | 20.97069 | 340 ft | 4 kts | 70° |
| 2026-05-05 22:13 | 52.17033 | 20.97037 | 336 ft | 4 kts | 73° |
| 2026-05-05 22:13 | 52.17024 | 20.97001 | 336 ft | 4 kts | 69° |
| 2026-05-05 22:13 | 52.17025 | 20.96965 | 338 ft | 4 kts | 126° |
| 2026-05-05 22:13 | 52.17043 | 20.96940 | 337 ft | 4 kts | 152° |
| 2026-05-05 22:14 | 52.17063 | 20.96923 | 340 ft | 0 kts | 152° |
| 2026-05-05 22:16 | 52.17054 | 20.96931 | 340 ft | 5 kts | 152° |
| 2026-05-05 22:16 | 52.16984 | 20.96991 | 338 ft | 16 kts | 152° |
| 2026-05-05 22:16 | 52.16877 | 20.97084 | 337 ft | 19 kts | 151° |
| 2026-05-05 22:17 | 52.16757 | 20.97191 | 339 ft | 21 kts | 152° |
| 2026-05-05 22:17 | 52.16683 | 20.97255 | 341 ft | 11 kts | 151° |
| 2026-05-05 22:17 | 52.16606 | 20.97321 | 341 ft | 14 kts | 152° |
| 2026-05-05 22:17 | 52.16552 | 20.97450 | 339 ft | 15 kts | 114° |
| 2026-05-05 22:18 | 52.16506 | 20.97616 | 340 ft | 17 kts | 114° |
| 2026-05-05 22:18 | 52.16457 | 20.97786 | 338 ft | 13 kts | 126° |
| 2026-05-05 22:18 | 52.16402 | 20.97794 | 346 ft | 9 kts | 200° |
| 2026-05-05 22:18 | 52.16337 | 20.97745 | 338 ft | 12 kts | 205° |
| 2026-05-05 22:19 | 52.16297 | 20.97703 | 337 ft | 0 kts | 258° |
| 2026-05-05 22:19 | 52.16298 | 20.97699 | 337 ft | 1 kts | 291° |
| 2026-05-05 22:19 | 52.16303 | 20.97683 | 338 ft | 0 kts | 293° |
| 2026-05-05 22:21 | 52.16310 | 20.97657 | 339 ft | 16 kts | 294° |
| 2026-05-05 22:22 | 52.16487 | 20.97035 | 338 ft | 103 kts | 294° |
| 2026-05-05 22:22 | 52.16891 | 20.95609 | 359 ft | 172 kts | 300° |
| 2026-05-05 22:22 | 52.17456 | 20.93732 | 893 ft | 192 kts | 299° |
| 2026-05-05 22:22 | 52.18078 | 20.91626 | 1295 ft | 220 kts | 296° |
| 2026-05-05 22:23 | 52.18911 | 20.89571 | 2333 ft | 217 kts | 314° |
| 2026-05-05 22:23 | 52.20240 | 20.88282 | 2938 ft | 241 kts | 340° |
| 2026-05-05 22:23 | 52.21918 | 20.87655 | 3606 ft | 250 kts | 334° |
| 2026-05-05 22:23 | 52.23204 | 20.85941 | 4581 ft | 233 kts | 302° |
| 2026-05-05 22:24 | 52.24275 | 20.83874 | 5466 ft | 246 kts | 307° |
| 2026-05-05 22:24 | 52.25434 | 20.81843 | 6450 ft | 248 kts | 309° |
| 2026-05-05 22:24 | 52.26907 | 20.80115 | 7128 ft | 274 kts | 333° |
| 2026-05-05 22:24 | 52.28815 | 20.79306 | 7838 ft | 290 kts | 345° |
| 2026-05-05 22:25 | 52.30783 | 20.78652 | 8799 ft | 292 kts | 346° |
| 2026-05-05 22:25 | 52.32788 | 20.78002 | 9761 ft | 297 kts | 346° |
| 2026-05-05 22:25 | 52.34854 | 20.77446 | 10406 ft | 312 kts | 355° |
| 2026-05-05 22:25 | 52.37103 | 20.77648 | 10882 ft | 331 kts | 2° |
| 2026-05-05 22:26 | 52.39401 | 20.77938 | 11460 ft | 344 kts | 2° |
| 2026-05-05 22:26 | 52.41859 | 20.78240 | 12166 ft | 352 kts | 1° |
| 2026-05-05 22:26 | 52.44312 | 20.78538 | 12959 ft | 357 kts | 1° |
| 2026-05-05 22:26 | 52.46778 | 20.78753 | 13655 ft | 361 kts | 353° |
| 2026-05-05 22:27 | 52.49217 | 20.77822 | 14352 ft | 355 kts | 331° |
| 2026-05-05 22:27 | 52.51180 | 20.75635 | 14983 ft | 351 kts | 311° |
| 2026-05-05 22:27 | 52.52750 | 20.72526 | 15631 ft | 352 kts | 306° |
| 2026-05-05 22:27 | 52.54591 | 20.69816 | 16308 ft | 361 kts | 323° |
| 2026-05-05 22:28 | 52.56763 | 20.67684 | 16957 ft | 365 kts | 325° |
| 2026-05-05 22:28 | 52.58936 | 20.65464 | 17573 ft | 369 kts | 325° |
| 2026-05-05 22:28 | 52.61121 | 20.63235 | 18214 ft | 372 kts | 325° |
| 2026-05-05 22:28 | 52.63291 | 20.61016 | 18725 ft | 375 kts | 325° |
| 2026-05-05 22:29 | 52.65504 | 20.58753 | 19266 ft | 378 kts | 325° |
| 2026-05-05 22:29 | 52.67766 | 20.56437 | 19792 ft | 380 kts | 325° |
| 2026-05-05 22:29 | 52.70027 | 20.54120 | 20301 ft | 383 kts | 325° |
| 2026-05-05 22:29 | 52.72267 | 20.51821 | 20837 ft | 386 kts | 324° |
| 2026-05-05 22:30 | 52.74562 | 20.49463 | 21406 ft | 388 kts | 324° |
| 2026-05-05 22:30 | 52.76834 | 20.47126 | 21990 ft | 389 kts | 324° |
| 2026-05-05 22:30 | 52.79138 | 20.44753 | 22494 ft | 392 kts | 324° |
| 2026-05-05 22:30 | 52.81455 | 20.42363 | 23024 ft | 395 kts | 323° |
| 2026-05-05 22:31 | 52.83789 | 20.39954 | 23545 ft | 398 kts | 323° |
| 2026-05-05 22:31 | 52.86157 | 20.37505 | 23776 ft | 403 kts | 323° |
| 2026-05-05 22:31 | 52.88530 | 20.35049 | 23817 ft | 403 kts | 323° |
| 2026-05-05 22:31 | 52.90908 | 20.32585 | 23818 ft | 402 kts | 323° |
| 2026-05-05 22:32 | 52.93188 | 20.30218 | 23824 ft | 402 kts | 323° |
| 2026-05-05 22:32 | 52.95537 | 20.27777 | 23828 ft | 402 kts | 323° |
| 2026-05-05 22:32 | 52.97916 | 20.25302 | 23835 ft | 402 kts | 323° |
| 2026-05-05 22:32 | 53.00276 | 20.22844 | 23829 ft | 402 kts | 323° |
| 2026-05-05 22:33 | 53.02646 | 20.20372 | 23856 ft | 402 kts | 323° |
| 2026-05-05 22:33 | 53.04975 | 20.17939 | 23842 ft | 400 kts | 323° |
| 2026-05-05 22:33 | 53.07329 | 20.15477 | 23847 ft | 400 kts | 323° |
| 2026-05-05 22:33 | 53.09671 | 20.13024 | 23839 ft | 394 kts | 323° |
| 2026-05-05 22:34 | 53.11948 | 20.10641 | 23841 ft | 378 kts | 323° |
| 2026-05-05 22:34 | 53.14136 | 20.08347 | 23832 ft | 366 kts | 322° |
| 2026-05-05 22:34 | 53.16278 | 20.06096 | 23854 ft | 364 kts | 322° |
| 2026-05-05 22:34 | 53.18417 | 20.03845 | 23847 ft | 364 kts | 322° |
| 2026-05-05 22:35 | 53.20558 | 20.01589 | 23848 ft | 363 kts | 322° |
| 2026-05-05 22:35 | 53.22692 | 19.99338 | 23857 ft | 363 kts | 322° |
| 2026-05-05 22:35 | 53.24840 | 19.97069 | 23854 ft | 363 kts | 322° |
| 2026-05-05 22:35 | 53.26942 | 19.94846 | 23855 ft | 363 kts | 322° |
| 2026-05-05 22:36 | 53.29062 | 19.92601 | 23858 ft | 363 kts | 322° |
| 2026-05-05 22:36 | 53.31202 | 19.90333 | 23862 ft | 363 kts | 322° |
| 2026-05-05 22:36 | 53.33336 | 19.88066 | 23875 ft | 363 kts | 322° |
| 2026-05-05 22:36 | 53.35453 | 19.85817 | 23879 ft | 362 kts | 321° |
| 2026-05-05 22:37 | 53.37586 | 19.83548 | 23860 ft | 362 kts | 321° |
| 2026-05-05 22:37 | 53.39713 | 19.81283 | 23854 ft | 362 kts | 321° |
| 2026-05-05 22:37 | 53.41843 | 19.79011 | 23868 ft | 362 kts | 321° |
| 2026-05-05 22:37 | 53.43961 | 19.76749 | 23869 ft | 362 kts | 321° |
| 2026-05-05 22:38 | 53.46082 | 19.74482 | 23864 ft | 362 kts | 321° |
| 2026-05-05 22:38 | 53.48201 | 19.72214 | 23866 ft | 362 kts | 321° |
| 2026-05-05 22:38 | 53.50323 | 19.69939 | 23883 ft | 362 kts | 321° |
| 2026-05-05 22:38 | 53.52447 | 19.67660 | 23865 ft | 362 kts | 321° |
| 2026-05-05 22:39 | 53.54552 | 19.65400 | 23574 ft | 359 kts | 321° |
| 2026-05-05 22:39 | 53.56670 | 19.63121 | 22747 ft | 369 kts | 322° |
| 2026-05-05 22:39 | 53.58844 | 19.60780 | 22114 ft | 372 kts | 322° |
| 2026-05-05 22:39 | 53.61028 | 19.58425 | 21568 ft | 372 kts | 322° |
| 2026-05-05 22:40 | 53.63202 | 19.56078 | 21054 ft | 373 kts | 322° |
| 2026-05-05 22:40 | 53.65388 | 19.53714 | 20530 ft | 373 kts | 322° |
| 2026-05-05 22:40 | 53.67563 | 19.51359 | 20037 ft | 373 kts | 322° |
| 2026-05-05 22:40 | 53.69740 | 19.49000 | 19529 ft | 373 kts | 322° |
| 2026-05-05 22:41 | 53.71910 | 19.46646 | 19033 ft | 373 kts | 322° |
| 2026-05-05 22:41 | 53.74098 | 19.44269 | 18509 ft | 369 kts | 322° |
| 2026-05-05 22:41 | 53.76221 | 19.41962 | 17985 ft | 359 kts | 322° |
| 2026-05-05 22:41 | 53.78298 | 19.39700 | 17404 ft | 350 kts | 322° |
| 2026-05-05 22:42 | 53.80295 | 19.37524 | 16865 ft | 342 kts | 322° |
| 2026-05-05 22:42 | 53.82293 | 19.35343 | 16299 ft | 334 kts | 322° |
| 2026-05-05 22:42 | 53.84227 | 19.33231 | 15753 ft | 328 kts | 322° |
| 2026-05-05 22:42 | 53.86125 | 19.31155 | 15215 ft | 322 kts | 322° |
| 2026-05-05 22:43 | 53.87966 | 19.29140 | 14698 ft | 316 kts | 322° |
| 2026-05-05 22:43 | 53.89781 | 19.27149 | 14240 ft | 310 kts | 322° |
| 2026-05-05 22:43 | 53.91575 | 19.25181 | 13798 ft | 304 kts | 321° |
| 2026-05-05 22:43 | 53.93310 | 19.23276 | 13345 ft | 300 kts | 322° |
| 2026-05-05 22:44 | 53.95062 | 19.21351 | 12850 ft | 299 kts | 322° |
| 2026-05-05 22:44 | 53.96805 | 19.19433 | 12364 ft | 298 kts | 322° |
| 2026-05-05 22:44 | 53.98542 | 19.17519 | 11907 ft | 296 kts | 322° |
| 2026-05-05 22:44 | 54.00265 | 19.15619 | 11428 ft | 293 kts | 322° |
| 2026-05-05 22:45 | 54.01955 | 19.13753 | 10959 ft | 288 kts | 322° |
| 2026-05-05 22:45 | 54.03609 | 19.11925 | 10508 ft | 284 kts | 323° |
| 2026-05-05 22:45 | 54.05255 | 19.10106 | 10061 ft | 281 kts | 323° |
| 2026-05-05 22:45 | 54.06880 | 19.08306 | 9590 ft | 278 kts | 323° |
| 2026-05-05 22:46 | 54.08495 | 19.06515 | 9102 ft | 275 kts | 323° |
| 2026-05-05 22:46 | 54.10054 | 19.04786 | 8621 ft | 273 kts | 323° |
| 2026-05-05 22:46 | 54.11638 | 19.03027 | 8136 ft | 270 kts | 323° |
| 2026-05-05 22:46 | 54.13192 | 19.01300 | 7709 ft | 265 kts | 323° |
| 2026-05-05 22:47 | 54.14726 | 18.99593 | 7290 ft | 261 kts | 323° |
| 2026-05-05 22:47 | 54.16231 | 18.97918 | 6885 ft | 257 kts | 324° |
| 2026-05-05 22:47 | 54.17734 | 18.96243 | 6541 ft | 258 kts | 324° |
| 2026-05-05 22:47 | 54.19235 | 18.94568 | 6175 ft | 257 kts | 324° |
| 2026-05-05 22:48 | 54.20731 | 18.92900 | 5791 ft | 256 kts | 325° |
| 2026-05-05 22:48 | 54.22216 | 18.91242 | 5419 ft | 255 kts | 325° |
| 2026-05-05 22:48 | 54.23697 | 18.89581 | 5052 ft | 253 kts | 327° |
| 2026-05-05 22:48 | 54.25149 | 18.87952 | 4673 ft | 248 kts | 328° |
| 2026-05-05 22:49 | 54.26576 | 18.86355 | 4282 ft | 243 kts | 329° |
| 2026-05-05 22:49 | 54.27921 | 18.84683 | 4080 ft | 231 kts | 317° |
| 2026-05-05 22:49 | 54.28860 | 18.82465 | 4139 ft | 233 kts | 300° |
| 2026-05-05 22:49 | 54.29537 | 18.79948 | 4049 ft | 233 kts | 294° |
| 2026-05-05 22:50 | 54.30138 | 18.77436 | 3984 ft | 224 kts | 294° |
| 2026-05-05 22:50 | 54.30731 | 18.75008 | 3740 ft | 217 kts | 295° |
| 2026-05-05 22:50 | 54.31311 | 18.72653 | 3467 ft | 212 kts | 295° |
| 2026-05-05 22:50 | 54.31874 | 18.70387 | 3197 ft | 201 kts | 295° |
| 2026-05-05 22:51 | 54.32404 | 18.68243 | 2928 ft | 189 kts | 295° |
| 2026-05-05 22:51 | 54.32901 | 18.66236 | 2687 ft | 178 kts | 296° |
| 2026-05-05 22:51 | 54.33360 | 18.64386 | 2497 ft | 167 kts | 296° |
| 2026-05-05 22:51 | 54.33812 | 18.62556 | 2252 ft | 160 kts | 296° |
| 2026-05-05 22:52 | 54.34227 | 18.60876 | 2058 ft | 152 kts | 297° |
| 2026-05-05 22:52 | 54.34633 | 18.59240 | 1832 ft | 149 kts | 297° |
| 2026-05-05 22:52 | 54.35035 | 18.57615 | 1630 ft | 150 kts | 298° |
| 2026-05-05 22:52 | 54.35442 | 18.55975 | 1409 ft | 149 kts | 297° |
| 2026-05-05 22:53 | 54.35845 | 18.54341 | 1188 ft | 147 kts | 296° |
| 2026-05-05 22:53 | 54.36243 | 18.52718 | 1003 ft | 148 kts | 294° |
| 2026-05-05 22:53 | 54.36636 | 18.51092 | 774 ft | 147 kts | 296° |
| 2026-05-05 22:53 | 54.37039 | 18.49494 | 579 ft | 145 kts | 292° |
| 2026-05-05 22:54 | 54.37421 | 18.47980 | 473 ft | 128 kts | 292° |
| 2026-05-05 22:54 | 54.37694 | 18.46875 | 456 ft | 68 kts | 293° |
| 2026-05-05 22:54 | 54.37844 | 18.46274 | 460 ft | 43 kts | 293° |
| 2026-05-05 22:54 | 54.37950 | 18.45920 | 458 ft | 24 kts | 309° |
| 2026-05-05 22:55 | 54.38037 | 18.45786 | 457 ft | 13 kts | 322° |
| 2026-05-05 22:55 | 54.38119 | 18.45688 | 457 ft | 13 kts | 343° |
| 2026-05-05 22:55 | 54.38141 | 18.45703 | 457 ft | 2 kts | 64° |
| 2026-05-05 22:55 | 54.38139 | 18.45801 | 457 ft | 12 kts | 110° |
| 2026-05-05 22:56 | 54.38107 | 18.45934 | 461 ft | 12 kts | 112° |
| 2026-05-05 22:56 | 54.38109 | 18.46054 | 459 ft | 9 kts | 43° |
| 2026-05-05 22:56 | 54.38158 | 18.46097 | 462 ft | 8 kts | 24° |
| 2026-05-05 22:56 | 54.38172 | 18.46186 | 462 ft | 9 kts | 105° |
| 2026-05-05 22:57 | 54.38144 | 18.46303 | 462 ft | 12 kts | 113° |
| 2026-05-05 22:57 | 54.38112 | 18.46430 | 462 ft | 12 kts | 113° |
| 2026-05-05 22:57 | 54.38081 | 18.46557 | 462 ft | 7 kts | 110° |
| 2026-05-05 22:57 | 54.38083 | 18.46585 | 462 ft | 2 kts | 62° |
| 2026-05-05 22:58 | 54.38101 | 18.46608 | 462 ft | 0 kts | 22° |
| 2026-05-05 22:58 | 54.38109 | 18.46614 | 462 ft | 2 kts | 23° |
| 2026-05-05 22:58 | 54.38115 | 18.46618 | 462 ft | 0 kts | 23° |